createdAt,value
2023-05-16T00:01:18.274Z,74.12
2023-05-16T00:06:18.991Z,74.26
2023-05-16T00:11:21.852Z,73.83
2023-05-16T00:16:22.654Z,72.89
2023-05-16T00:21:23.821Z,73.39
2023-05-16T00:26:26.288Z,72.09
2023-05-16T00:31:27.011Z,72.47
2023-05-16T00:36:27.710Z,73.83
2023-05-16T00:41:29.894Z,72.81
2023-05-16T00:46:30.786Z,74.05
2023-05-16T00:51:31.952Z,73.59
2023-05-16T00:56:34.668Z,74.07
2023-05-16T01:01:37.560Z,73.50
2023-05-16T01:06:38.263Z,74.06
2023-05-16T01:11:52.161Z,74.96
2023-05-16T01:17:01.078Z,74.53
2023-05-16T01:22:07.355Z,74.42
2023-05-16T01:27:10.425Z,74.56
2023-05-16T01:32:11.156Z,75.42
2023-05-16T01:37:18.397Z,74.97
2023-05-16T01:42:25.444Z,75.35
2023-05-16T01:47:27.885Z,75.21
2023-05-16T01:52:36.250Z,75.84
2023-05-16T01:57:39.852Z,75.53
2023-05-16T02:02:40.668Z,76.45
2023-05-16T02:07:43.093Z,77.08
2023-05-16T02:12:45.286Z,76.81
2023-05-16T02:17:47.551Z,75.74
2023-05-16T02:22:50.178Z,75.70
2023-05-16T02:27:52.234Z,75.87
2023-05-16T02:32:54.189Z,76.20
2023-05-16T02:37:55.441Z,76.49
2023-05-16T02:42:59.898Z,76.57
2023-05-16T02:48:00.792Z,75.93
2023-05-16T02:53:02.486Z,75.21
2023-05-16T02:58:04.578Z,75.74
2023-05-16T03:03:05.741Z,74.95
2023-05-16T03:08:06.854Z,74.67
2023-05-16T03:13:09.582Z,74.84
2023-05-16T03:18:10.452Z,74.08
2023-05-16T03:23:11.164Z,74.45
2023-05-16T03:28:15.213Z,74.41
2023-05-16T03:33:16.246Z,75.44
2023-05-16T03:38:17.169Z,74.01
2023-05-16T03:43:19.285Z,74.41
2023-05-16T03:48:20.047Z,74.51
2023-05-16T03:53:21.044Z,74.06
2023-05-16T03:58:23.823Z,73.65
2023-05-16T04:03:28.626Z,74.08
2023-05-16T04:08:29.819Z,73.31
2023-05-16T04:13:31.896Z,73.32
2023-05-16T04:18:32.647Z,74.38
2023-05-16T04:23:33.388Z,71.88
2023-05-16T04:28:35.961Z,71.74
2023-05-16T04:33:37.274Z,71.98
2023-05-16T04:38:38.250Z,72.04
2023-05-16T04:43:40.687Z,73.25
2023-05-16T04:48:41.349Z,72.80
2023-05-16T04:53:42.026Z,72.51
2023-05-16T04:58:44.092Z,72.36
2023-05-16T05:03:46.923Z,72.47
2023-05-16T05:08:48.958Z,72.97
2023-05-16T05:13:52.996Z,73.44
2023-05-16T05:18:53.971Z,73.04
2023-05-16T05:23:54.746Z,73.72
2023-05-16T05:29:04.759Z,74.12
2023-05-16T05:34:06.293Z,73.50
2023-05-16T05:39:07.181Z,73.86
2023-05-16T05:44:09.279Z,74.05
2023-05-16T05:49:10.191Z,74.00
2023-05-16T05:54:11.158Z,74.99
2023-05-16T05:59:13.213Z,73.75
2023-05-16T06:04:13.911Z,75.49
2023-05-16T06:09:15.143Z,75.76
2023-05-16T06:14:17.191Z,75.79
2023-05-16T06:19:17.953Z,76.06
2023-05-16T06:24:18.725Z,76.35
2023-05-16T06:29:20.805Z,76.34
2023-05-16T06:34:23.925Z,75.95
2023-05-16T06:39:24.608Z,75.67
2023-05-16T06:44:27.105Z,75.12
2023-05-16T06:49:28.027Z,76.26
2023-05-16T06:54:28.760Z,75.46
2023-05-16T06:59:30.860Z,76.01
2023-05-16T07:04:31.850Z,75.62
2023-05-16T07:09:32.817Z,75.66
2023-05-16T07:14:34.894Z,75.60
2023-05-16T07:19:35.648Z,75.12
2023-05-16T07:24:37.131Z,75.80
2023-05-16T07:29:39.383Z,76.20
2023-05-16T07:34:40.103Z,76.06
2023-05-16T07:39:41.092Z,76.30
2023-05-16T07:44:43.128Z,77.18
2023-05-16T07:49:43.876Z,77.10
2023-05-16T07:54:44.728Z,77.13
2023-05-16T07:59:47.030Z,76.53
2023-05-16T08:04:48.885Z,76.01
2023-05-16T08:09:49.623Z,76.82
2023-05-16T08:14:52.031Z,76.77
2023-05-16T08:19:52.772Z,76.67
2023-05-16T08:24:57.704Z,76.96
2023-05-16T08:29:59.773Z,76.75
2023-05-16T08:35:01.071Z,76.79
2023-05-16T08:40:01.780Z,76.75
2023-05-16T08:45:05.478Z,76.29
2023-05-16T08:50:10.277Z,76.04
2023-05-16T08:55:12.619Z,75.64
2023-05-16T09:00:16.224Z,76.10
2023-05-16T09:05:18.934Z,76.58
2023-05-16T09:10:19.710Z,76.00
2023-05-16T09:15:22.068Z,76.13
2023-05-16T09:20:22.809Z,75.76
2023-05-16T09:25:31.099Z,75.92
2023-05-16T09:30:35.266Z,75.35
2023-05-16T09:35:44.961Z,74.61
2023-05-16T09:40:47.346Z,74.96
2023-05-16T09:45:50.433Z,74.66
2023-05-16T09:50:54.369Z,75.02
2023-05-16T09:56:02.961Z,73.75
2023-05-16T10:01:06.032Z,74.75
2023-05-16T10:06:07.874Z,74.73
2023-05-16T10:11:08.660Z,74.64
2023-05-16T10:16:13.396Z,73.94
2023-05-16T10:21:16.587Z,73.82
2023-05-16T10:26:18.509Z,72.50
2023-05-16T10:31:22.015Z,72.38
2023-05-16T10:36:22.919Z,72.97
2023-05-16T10:41:23.815Z,73.84
2023-05-16T10:46:29.190Z,73.41
2023-05-16T10:51:38.710Z,73.03
2023-05-16T10:56:39.881Z,72.21
2023-05-16T11:01:42.152Z,72.53
2023-05-16T11:06:54.719Z,70.62
2023-05-16T11:11:57.674Z,68.28
2023-05-16T11:17:04.486Z,66.30
2023-05-16T11:22:27.144Z,65.07
2023-05-16T11:27:30.164Z,65.00
2023-05-16T11:32:35.131Z,66.04
2023-05-16T11:37:37.829Z,65.75
2023-05-16T11:42:40.553Z,65.37
2023-05-16T11:47:45.688Z,62.44
2023-05-16T11:52:48.208Z,61.01
2023-05-16T11:57:49.045Z,61.21
2023-05-16T12:02:52.138Z,61.30
2023-05-16T12:07:54.419Z,60.50
2023-05-16T12:12:56.308Z,60.84
2023-05-16T12:17:58.980Z,59.22
2023-05-16T12:22:59.921Z,60.00
2023-05-16T12:28:02.334Z,60.43
2023-05-16T12:33:09.355Z,60.24
2023-05-16T12:38:14.094Z,60.07
2023-05-16T12:43:16.868Z,61.57
2023-05-16T12:48:19.325Z,62.39
2023-05-16T12:53:20.212Z,64.28
2023-05-16T12:58:21.110Z,63.64
2023-05-16T13:03:23.214Z,63.15
2023-05-16T13:08:24.034Z,64.47
2023-05-16T13:13:35.343Z,64.60
2023-05-16T13:18:38.439Z,65.50
2023-05-16T13:23:39.138Z,65.49
2023-05-16T13:28:39.890Z,65.17
2023-05-16T13:33:41.955Z,64.77
2023-05-16T13:38:42.758Z,64.80
2023-05-16T13:43:43.439Z,63.53
2023-05-16T13:48:45.483Z,61.67
2023-05-16T13:53:46.206Z,62.38
2023-05-16T14:03:54.903Z,63.15
2023-05-16T14:08:55.851Z,63.78
2023-05-16T14:13:56.873Z,64.07
2023-05-16T14:18:59.033Z,65.14
2023-05-16T14:24:00.111Z,64.53
2023-05-16T14:29:00.838Z,65.26
2023-05-16T14:34:03.072Z,65.58
2023-05-16T14:39:04.190Z,66.74
2023-05-16T14:44:05.245Z,67.13
2023-05-16T14:49:07.376Z,68.00
2023-05-16T14:54:08.572Z,67.18
2023-05-16T14:59:09.368Z,66.74
2023-05-16T15:04:11.552Z,67.17
2023-05-16T15:09:12.311Z,66.07
2023-05-16T15:14:13.405Z,66.11
2023-05-16T15:19:15.522Z,65.07
2023-05-16T15:24:16.686Z,65.07
2023-05-16T15:29:20.064Z,65.01
2023-05-16T15:34:22.203Z,64.77
2023-05-16T15:39:25.834Z,65.33
2023-05-16T15:44:26.553Z,65.12
2023-05-16T15:49:28.865Z,64.47
2023-05-16T15:54:29.724Z,63.01
2023-05-16T15:59:30.421Z,61.90
2023-05-16T16:04:32.703Z,60.67
2023-05-16T16:09:33.547Z,59.48
2023-05-16T16:14:34.333Z,58.12
2023-05-16T16:19:36.538Z,58.20
2023-05-16T16:24:37.285Z,57.39
2023-05-16T16:29:37.982Z,57.33
2023-05-16T16:34:40.063Z,56.89
2023-05-16T16:39:40.878Z,54.30
2023-05-16T16:44:41.580Z,54.34
2023-05-16T16:49:43.642Z,54.42
2023-05-16T16:54:45.114Z,53.63
2023-05-16T16:59:46.669Z,47.82
2023-05-16T17:04:49.179Z,46.99
2023-05-16T17:09:49.944Z,44.61
2023-05-16T17:14:51.820Z,43.06
2023-05-16T17:19:54.195Z,46.69
2023-05-16T17:24:54.901Z,50.00
2023-05-16T17:29:55.652Z,51.52
2023-05-16T17:34:57.687Z,53.72
2023-05-16T17:39:58.584Z,51.62
2023-05-16T17:45:03.545Z,48.65
2023-05-16T17:50:08.768Z,50.16
2023-05-16T17:55:11.115Z,50.88
2023-05-16T18:00:14.973Z,52.25
2023-05-16T18:05:17.414Z,54.47
2023-05-16T18:10:18.299Z,55.76
2023-05-16T18:15:19.530Z,59.59
2023-05-16T18:20:21.945Z,55.64
2023-05-16T18:25:22.776Z,57.22
2023-05-16T18:30:23.604Z,55.46
2023-05-16T18:35:27.603Z,56.06
2023-05-16T18:40:28.872Z,56.63
2023-05-16T18:45:30.233Z,59.49
2023-05-16T18:50:32.701Z,61.47
2023-05-16T18:55:33.870Z,62.11
2023-05-16T19:00:34.715Z,62.57
2023-05-16T19:05:37.465Z,66.06
2023-05-16T19:10:41.552Z,67.87
2023-05-16T19:15:42.287Z,68.51
2023-05-16T19:20:45.584Z,67.40
2023-05-16T19:25:49.033Z,66.41
2023-05-16T19:30:49.908Z,67.19
2023-05-16T19:35:53.712Z,70.50
2023-05-16T19:40:54.685Z,71.54
2023-05-16T19:45:55.427Z,70.36
2023-05-16T19:50:57.541Z,72.10
2023-05-16T19:55:58.412Z,71.46
2023-05-16T20:00:59.144Z,70.28
2023-05-16T20:06:10.200Z,69.56
2023-05-16T20:11:12.017Z,68.05
2023-05-16T20:16:12.790Z,65.02
2023-05-16T20:21:14.825Z,61.67
2023-05-16T20:26:15.773Z,62.15
2023-05-16T20:31:16.608Z,60.63
2023-05-16T20:36:18.816Z,59.23
2023-05-16T20:41:19.534Z,59.49
2023-05-16T20:46:20.282Z,60.69
2023-05-16T20:51:22.423Z,61.01
2023-05-16T20:56:23.530Z,61.49
2023-05-16T21:01:24.256Z,61.62
2023-05-16T21:06:26.330Z,60.63
2023-05-16T21:11:27.634Z,60.63
2023-05-16T21:16:29.883Z,60.36
2023-05-16T21:21:32.021Z,60.61
2023-05-16T21:26:32.723Z,61.06
2023-05-16T21:31:33.433Z,60.63
2023-05-16T21:36:35.863Z,60.25
2023-05-16T21:41:36.596Z,60.91
2023-05-16T21:46:37.372Z,60.43
2023-05-16T21:51:39.467Z,59.90
2023-05-16T21:56:40.233Z,59.50
2023-05-16T22:01:40.957Z,59.04
2023-05-16T22:06:43.089Z,59.09
2023-05-16T22:11:43.819Z,59.69
2023-05-16T22:16:44.573Z,59.52
2023-05-16T22:21:46.602Z,60.41
2023-05-16T22:26:47.461Z,59.73
2023-05-16T22:31:48.195Z,60.27
2023-05-16T22:36:50.270Z,60.63
2023-05-16T22:41:51.493Z,60.10
2023-05-16T22:46:52.196Z,59.48
2023-05-16T22:51:54.243Z,59.48
2023-05-16T22:56:54.968Z,58.99
2023-05-16T23:01:55.657Z,58.82
2023-05-16T23:06:57.687Z,59.31
2023-05-16T23:11:59.200Z,58.97
2023-05-16T23:16:59.994Z,59.75
2023-05-16T23:22:03.436Z,59.54
2023-05-16T23:27:04.159Z,60.30
2023-05-16T23:32:05.211Z,60.60
2023-05-16T23:37:07.315Z,60.55
2023-05-16T23:42:08.112Z,61.12
2023-05-16T23:47:09.378Z,61.34
2023-05-16T23:52:11.417Z,60.98
2023-05-16T23:57:12.124Z,61.45
